createdAt,value
2019-05-29T00:00:50.344Z,3.75
2019-05-29T00:01:50.243Z,3.73
2019-05-29T00:02:50.252Z,3.80
2019-05-29T00:03:50.268Z,3.84
2019-05-29T00:04:50.327Z,3.84
2019-05-29T00:05:50.275Z,3.80
2019-05-29T00:06:50.280Z,3.86
2019-05-29T00:07:50.316Z,3.93
2019-05-29T00:08:50.328Z,3.91
2019-05-29T00:09:50.307Z,3.93
2019-05-29T00:10:50.329Z,3.91
2019-05-29T00:11:50.377Z,3.96
2019-05-29T00:12:50.331Z,4.00
2019-05-29T00:13:50.343Z,3.98
2019-05-29T00:14:50.366Z,3.98
2019-05-29T00:15:50.376Z,3.93
2019-05-29T00:16:50.394Z,3.98
2019-05-29T00:17:50.379Z,3.91
2019-05-29T00:18:50.391Z,3.90
2019-05-29T00:19:50.403Z,3.90
2019-05-29T00:20:50.422Z,3.93
2019-05-29T00:21:50.428Z,3.87
2019-05-29T00:22:50.472Z,3.93
2019-05-29T00:23:50.439Z,3.96
2019-05-29T00:24:50.433Z,3.88
2019-05-29T00:25:50.480Z,3.90
2019-05-29T00:26:50.454Z,3.87
2019-05-29T00:27:50.608Z,3.94
2019-05-29T00:28:50.490Z,3.93
2019-05-29T00:29:50.513Z,3.98
2019-05-29T00:30:50.594Z,3.94
2019-05-29T00:31:50.504Z,3.98
2019-05-29T00:32:50.533Z,3.94
2019-05-29T00:33:50.558Z,3.97
2019-05-29T00:34:50.535Z,3.90
2019-05-29T00:35:50.605Z,3.87
2019-05-29T00:36:50.551Z,3.88
2019-05-29T00:37:50.562Z,3.87
2019-05-29T00:38:50.587Z,3.90
2019-05-29T00:39:50.583Z,3.84
2019-05-29T00:40:50.742Z,3.90
2019-05-29T00:41:50.594Z,3.90
2019-05-29T00:42:50.606Z,3.94
2019-05-29T00:43:50.638Z,3.91
2019-05-29T00:44:50.619Z,3.93
2019-05-29T00:45:50.662Z,3.91
2019-05-29T00:46:50.633Z,3.93
2019-05-29T00:47:50.662Z,3.86
2019-05-29T00:48:50.683Z,3.84
2019-05-29T00:49:50.675Z,3.86
2019-05-29T00:50:50.692Z,3.87
2019-05-29T00:51:50.699Z,3.78
2019-05-29T00:52:50.697Z,3.87
2019-05-29T00:53:50.703Z,3.79
2019-05-29T00:54:50.805Z,3.84
2019-05-29T00:55:50.728Z,3.83
2019-05-29T00:56:50.774Z,3.84
2019-05-29T00:57:50.755Z,3.87
2019-05-29T00:58:50.759Z,3.83
2019-05-29T00:59:50.742Z,3.84
2019-05-29T01:00:50.782Z,3.79
2019-05-29T01:01:50.776Z,3.87
2019-05-29T01:02:50.827Z,3.86
2019-05-29T01:03:50.818Z,3.80
2019-05-29T01:04:50.813Z,3.79
2019-05-29T01:05:50.965Z,3.87
2019-05-29T01:06:51.003Z,3.84
2019-05-29T01:07:50.841Z,3.87
2019-05-29T01:08:50.860Z,3.90
2019-05-29T01:09:50.916Z,3.84
2019-05-29T01:10:50.883Z,3.75
2019-05-29T01:11:50.863Z,3.75
2019-05-29T01:12:50.899Z,3.70
2019-05-29T01:13:50.879Z,3.75
2019-05-29T01:14:50.928Z,3.75
2019-05-29T01:15:50.954Z,3.70
2019-05-29T01:16:50.907Z,3.73
2019-05-29T01:17:50.951Z,3.68
2019-05-29T01:18:51.136Z,3.62
2019-05-29T01:19:50.949Z,3.73
2019-05-29T01:20:50.968Z,3.65
2019-05-29T01:21:51.084Z,3.69
2019-05-29T01:22:50.977Z,3.76
2019-05-29T01:23:50.985Z,3.75
2019-05-29T01:24:51.033Z,3.78
2019-05-29T01:25:50.993Z,3.79
2019-05-29T01:26:51.042Z,3.86
2019-05-29T01:27:51.067Z,3.90
2019-05-29T01:28:51.044Z,3.91
2019-05-29T01:29:51.154Z,3.84
2019-05-29T01:30:51.659Z,3.84
2019-05-29T01:31:51.058Z,3.84
2019-05-29T01:32:51.075Z,3.93
2019-05-29T01:33:51.211Z,3.83
2019-05-29T01:34:51.086Z,3.90
2019-05-29T01:35:51.330Z,3.78
2019-05-29T01:36:51.145Z,3.83
2019-05-29T01:37:51.099Z,3.93
2019-05-29T01:38:51.108Z,3.83
2019-05-29T01:39:51.118Z,3.80
2019-05-29T01:40:51.218Z,3.76
2019-05-29T01:41:51.132Z,3.78
2019-05-29T01:42:51.160Z,3.75
2019-05-29T01:43:51.196Z,3.83
2019-05-29T01:45:06.367Z,3.75
2019-05-29T01:45:51.557Z,3.84
2019-05-29T01:46:51.196Z,3.76
2019-05-29T01:47:51.195Z,3.68
2019-05-29T01:48:51.213Z,3.66
2019-05-29T01:49:51.213Z,3.70
2019-05-29T01:50:51.232Z,3.65
2019-05-29T01:51:51.247Z,3.61
2019-05-29T01:52:51.238Z,3.61
2019-05-29T01:53:51.575Z,3.66
2019-05-29T01:54:51.253Z,3.61
2019-05-29T01:55:51.271Z,3.62
2019-05-29T01:56:51.292Z,3.51
2019-05-29T01:57:51.545Z,3.52
2019-05-29T01:58:51.547Z,3.55
2019-05-29T01:59:51.330Z,3.61
2019-05-29T02:00:51.326Z,3.61
2019-05-29T02:01:51.323Z,3.60
2019-05-29T02:02:51.355Z,3.65
2019-05-29T02:03:51.336Z,3.66
2019-05-29T02:04:51.343Z,3.66
2019-05-29T02:05:51.367Z,3.55
2019-05-29T02:06:51.711Z,3.70
2019-05-29T02:07:51.462Z,3.66
2019-05-29T02:08:51.386Z,3.68
2019-05-29T02:09:51.403Z,3.75
2019-05-29T02:10:51.402Z,3.66
2019-05-29T02:11:51.583Z,3.68
2019-05-29T02:12:51.449Z,3.57
2019-05-29T02:13:51.437Z,3.62
2019-05-29T02:14:51.444Z,3.51
2019-05-29T02:15:51.482Z,3.65
2019-05-29T02:16:51.465Z,3.61
2019-05-29T02:17:51.452Z,3.65
2019-05-29T02:18:51.484Z,3.62
2019-05-29T02:19:51.554Z,3.69
2019-05-29T02:20:51.509Z,3.58
2019-05-29T02:21:51.559Z,3.58
2019-05-29T02:22:51.499Z,3.69
2019-05-29T02:23:51.537Z,3.66
2019-05-29T02:24:51.602Z,3.58
2019-05-29T02:25:51.608Z,3.70
2019-05-29T02:26:51.556Z,3.72
2019-05-29T02:27:51.561Z,3.66
2019-05-29T02:28:51.554Z,3.70
2019-05-29T02:29:51.568Z,3.72
2019-05-29T02:30:51.592Z,3.72
2019-05-29T02:31:51.588Z,3.70
2019-05-29T02:32:51.617Z,3.73
2019-05-29T02:33:51.588Z,3.69
2019-05-29T02:34:51.735Z,3.66
2019-05-29T02:35:51.612Z,3.70
2019-05-29T02:36:51.629Z,3.73
2019-05-29T02:37:51.703Z,3.76
2019-05-29T02:38:51.692Z,3.76
2019-05-29T02:39:51.647Z,3.78
2019-05-29T02:40:51.660Z,3.79
2019-05-29T02:41:51.673Z,3.76
2019-05-29T02:42:51.679Z,3.78
2019-05-29T02:43:51.689Z,3.72
2019-05-29T02:44:51.766Z,3.86
2019-05-29T02:45:54.803Z,3.91
2019-05-29T02:46:51.730Z,3.84
2019-05-29T02:47:51.780Z,3.84
2019-05-29T02:48:51.748Z,3.90
2019-05-29T02:49:51.780Z,3.88
2019-05-29T02:50:51.844Z,3.83
2019-05-29T02:51:51.756Z,3.84
2019-05-29T02:52:51.829Z,3.86
2019-05-29T02:53:51.785Z,3.90
2019-05-29T02:54:51.794Z,3.84
2019-05-29T02:55:51.810Z,3.80
2019-05-29T02:56:51.817Z,3.79
2019-05-29T02:57:51.821Z,3.84
2019-05-29T02:58:52.079Z,3.65
2019-05-29T02:59:51.878Z,3.70
2019-05-29T03:00:51.833Z,3.65
2019-05-29T03:01:51.836Z,3.70
2019-05-29T03:02:51.907Z,3.61
2019-05-29T03:03:51.878Z,3.60
2019-05-29T03:04:51.873Z,3.70
2019-05-29T03:05:51.898Z,3.60
2019-05-29T03:06:51.905Z,3.65
2019-05-29T03:07:51.923Z,3.62
2019-05-29T03:08:51.933Z,3.58
2019-05-29T03:09:51.923Z,3.58
2019-05-29T03:10:51.935Z,3.48
2019-05-29T03:11:51.933Z,3.42
2019-05-29T03:12:51.957Z,3.35
2019-05-29T03:13:52.054Z,3.40
2019-05-29T03:14:51.953Z,3.36
2019-05-29T03:16:08.447Z,3.35
2019-05-29T03:16:52.008Z,3.39
2019-05-29T03:17:51.991Z,3.31
2019-05-29T03:18:52.017Z,3.20
2019-05-29T03:19:52.002Z,3.28
2019-05-29T03:20:52.029Z,3.20
2019-05-29T03:21:52.035Z,3.21
2019-05-29T03:22:52.119Z,3.26
2019-05-29T03:23:52.033Z,3.18
2019-05-29T03:24:52.061Z,3.26
2019-05-29T03:25:52.060Z,3.23
2019-05-29T03:26:52.065Z,3.31
2019-05-29T03:27:52.163Z,3.26
2019-05-29T03:28:52.103Z,3.28
2019-05-29T03:29:52.109Z,3.26
2019-05-29T03:30:52.117Z,3.28
2019-05-29T03:31:52.131Z,3.26
2019-05-29T03:32:52.127Z,3.17
2019-05-29T03:33:52.134Z,3.21
2019-05-29T03:34:52.152Z,3.20
2019-05-29T03:35:52.172Z,3.15
2019-05-29T03:36:52.129Z,3.21
2019-05-29T03:37:52.323Z,3.17
2019-05-29T03:38:52.193Z,3.18
2019-05-29T03:39:52.170Z,3.26
2019-05-29T03:40:52.188Z,3.28
2019-05-29T03:41:52.214Z,3.31
2019-05-29T03:42:52.210Z,3.39
2019-05-29T03:43:52.208Z,3.36
2019-05-29T03:44:52.229Z,3.35
2019-05-29T03:45:52.230Z,3.33
2019-05-29T03:46:52.250Z,3.40
2019-05-29T03:47:52.258Z,3.39
2019-05-29T03:48:52.304Z,3.40
2019-05-29T03:49:52.276Z,3.39
2019-05-29T03:50:52.328Z,3.35
2019-05-29T03:51:52.276Z,3.31
2019-05-29T03:52:52.306Z,3.33
2019-05-29T03:53:52.305Z,3.39
2019-05-29T03:54:52.378Z,3.39
2019-05-29T03:55:52.316Z,3.35
2019-05-29T03:56:52.453Z,3.35
2019-05-29T03:57:52.329Z,3.31
2019-05-29T03:58:52.419Z,3.39
2019-05-29T03:59:52.356Z,3.35
2019-05-29T04:00:52.347Z,3.42
2019-05-29T04:01:52.373Z,3.39
2019-05-29T04:03:52.429Z,3.40
2019-05-29T04:04:52.421Z,3.36
2019-05-29T04:05:52.396Z,3.40
2019-05-29T04:06:52.393Z,3.35
2019-05-29T04:07:52.462Z,3.45
2019-05-29T04:08:52.437Z,3.36
2019-05-29T04:09:52.425Z,3.35
2019-05-29T04:10:52.435Z,3.35
2019-05-29T04:11:52.458Z,3.39
2019-05-29T04:12:52.649Z,3.36
2019-05-29T04:13:52.480Z,3.43
2019-05-29T04:14:52.468Z,3.40
2019-05-29T04:15:52.503Z,3.48
2019-05-29T04:16:59.497Z,3.48
2019-05-29T04:17:52.514Z,3.50
2019-05-29T04:18:52.530Z,3.48
2019-05-29T04:19:52.511Z,3.47
2019-05-29T04:20:52.576Z,3.42
2019-05-29T04:21:52.528Z,3.33
2019-05-29T04:22:52.551Z,3.33
2019-05-29T04:23:52.569Z,3.29
2019-05-29T04:24:52.568Z,3.28
2019-05-29T04:25:52.630Z,3.31
2019-05-29T04:26:52.598Z,3.32
2019-05-29T04:27:52.598Z,3.21
2019-05-29T04:28:52.624Z,3.23
2019-05-29T04:29:52.622Z,3.26
2019-05-29T04:30:52.638Z,3.29
2019-05-29T04:31:52.620Z,3.26
2019-05-29T04:32:52.722Z,3.24
2019-05-29T04:33:52.634Z,3.35
2019-05-29T04:34:52.651Z,3.39
2019-05-29T04:35:52.652Z,3.33
2019-05-29T04:36:52.669Z,3.39
2019-05-29T04:37:52.700Z,3.48
2019-05-29T04:38:52.692Z,3.45
2019-05-29T04:39:52.702Z,3.52
2019-05-29T04:40:52.773Z,3.51
2019-05-29T04:41:52.727Z,3.48
2019-05-29T04:42:52.740Z,3.52
2019-05-29T04:43:56.899Z,3.52
2019-05-29T04:44:52.729Z,3.57
2019-05-29T04:45:52.768Z,3.52
2019-05-29T04:47:09.359Z,3.54
2019-05-29T04:47:52.752Z,3.54
2019-05-29T04:48:52.764Z,3.55
2019-05-29T04:49:52.808Z,3.68
2019-05-29T04:50:52.785Z,3.62
2019-05-29T04:51:52.802Z,3.65
2019-05-29T04:52:52.865Z,3.69
2019-05-29T04:53:52.832Z,3.68
2019-05-29T04:54:52.804Z,3.54
2019-05-29T04:55:52.819Z,3.66
2019-05-29T04:56:52.823Z,3.54
2019-05-29T04:57:52.842Z,3.54
2019-05-29T04:58:52.890Z,3.55
2019-05-29T04:59:52.855Z,3.51
2019-05-29T05:00:59.145Z,3.50
2019-05-29T05:01:52.873Z,3.57
2019-05-29T05:02:52.891Z,3.52
2019-05-29T05:03:52.905Z,3.55
2019-05-29T05:04:52.908Z,3.43
2019-05-29T05:05:52.923Z,3.45
2019-05-29T05:06:52.929Z,3.40
2019-05-29T05:07:52.955Z,3.45
2019-05-29T05:08:52.931Z,3.48
2019-05-29T05:09:52.963Z,3.45
2019-05-29T05:10:52.962Z,3.51
2019-05-29T05:11:52.978Z,3.45
2019-05-29T05:12:52.991Z,3.55
2019-05-29T05:13:52.998Z,3.55
2019-05-29T05:14:52.994Z,3.51
2019-05-29T05:15:53.000Z,3.57
2019-05-29T05:16:53.014Z,3.61
2019-05-29T05:17:53.055Z,3.66
2019-05-29T05:18:53.034Z,3.73
2019-05-29T05:19:53.041Z,3.70
2019-05-29T05:20:53.049Z,3.70
2019-05-29T05:21:53.039Z,3.79
2019-05-29T05:22:53.051Z,3.87
2019-05-29T05:23:53.059Z,3.83
2019-05-29T05:24:53.079Z,3.88
2019-05-29T05:25:53.104Z,3.96
2019-05-29T05:26:53.087Z,4.05
2019-05-29T05:27:53.107Z,3.97
2019-05-29T05:28:53.190Z,4.02
2019-05-29T05:29:53.128Z,4.00
2019-05-29T05:30:53.279Z,4.04
2019-05-29T05:31:53.142Z,4.08
2019-05-29T05:32:53.199Z,3.98
2019-05-29T05:33:53.161Z,3.86
2019-05-29T05:34:53.153Z,3.72
2019-05-29T05:35:53.222Z,3.62
2019-05-29T05:36:53.188Z,3.61
2019-05-29T05:37:53.190Z,3.69
2019-05-29T05:38:53.619Z,3.66
2019-05-29T05:39:53.210Z,3.51
2019-05-29T05:40:53.242Z,3.57
2019-05-29T05:41:53.263Z,3.54
2019-05-29T05:42:53.238Z,3.48
2019-05-29T05:43:53.456Z,3.42
2019-05-29T05:44:53.231Z,3.35
2019-05-29T05:45:53.263Z,3.32
2019-05-29T05:46:53.272Z,3.51
2019-05-29T05:47:57.246Z,3.51
2019-05-29T05:48:53.270Z,3.52
2019-05-29T05:49:53.387Z,3.62
2019-05-29T05:50:53.346Z,3.66
2019-05-29T05:51:53.307Z,3.66
2019-05-29T05:52:53.415Z,3.66
2019-05-29T05:53:53.330Z,3.76
2019-05-29T05:54:53.392Z,3.83
2019-05-29T05:55:53.344Z,3.76
2019-05-29T05:56:53.748Z,3.69
2019-05-29T05:57:53.355Z,3.65
2019-05-29T05:58:53.404Z,3.58
2019-05-29T05:59:53.404Z,3.72
2019-05-29T06:00:53.379Z,3.73
2019-05-29T06:01:53.402Z,3.80
2019-05-29T06:02:53.401Z,3.79
2019-05-29T06:03:53.509Z,3.66
2019-05-29T06:04:53.465Z,3.61
2019-05-29T06:05:53.451Z,3.65
2019-05-29T06:06:53.428Z,3.61
2019-05-29T06:07:53.464Z,3.66
2019-05-29T06:08:53.464Z,3.55
2019-05-29T06:09:53.471Z,3.54
2019-05-29T06:10:53.480Z,3.62
2019-05-29T06:11:53.494Z,3.52
2019-05-29T06:12:53.515Z,3.35
2019-05-29T06:13:53.522Z,3.48
2019-05-29T06:14:53.499Z,3.54
2019-05-29T06:15:53.518Z,3.69
2019-05-29T06:16:53.519Z,3.70
2019-05-29T06:18:16.981Z,3.76
2019-05-29T06:18:53.547Z,3.69
2019-05-29T06:19:53.553Z,3.60
2019-05-29T06:20:53.566Z,3.65
2019-05-29T06:21:53.640Z,3.57
2019-05-29T06:22:53.570Z,3.52
2019-05-29T06:23:53.587Z,3.69
2019-05-29T06:24:53.789Z,3.62
2019-05-29T06:25:53.610Z,3.84
2019-05-29T06:26:53.607Z,3.84
2019-05-29T06:27:53.603Z,3.90
2019-05-29T06:28:53.639Z,3.94
2019-05-29T06:29:53.637Z,4.00
2019-05-29T06:30:53.646Z,4.11
2019-05-29T06:31:53.663Z,4.08
2019-05-29T06:32:53.659Z,4.24
2019-05-29T06:33:53.676Z,4.29
2019-05-29T06:34:53.693Z,4.26
2019-05-29T06:35:53.683Z,4.24
2019-05-29T06:36:53.704Z,4.26
2019-05-29T06:37:53.736Z,4.23
2019-05-29T06:38:53.707Z,4.16
2019-05-29T06:39:53.738Z,4.08
2019-05-29T06:40:53.821Z,4.24
2019-05-29T06:41:53.761Z,4.24
2019-05-29T06:42:53.762Z,4.11
2019-05-29T06:43:53.919Z,3.98
2019-05-29T06:44:53.789Z,4.00
2019-05-29T06:45:53.790Z,3.91
2019-05-29T06:46:53.831Z,3.93
2019-05-29T06:47:53.944Z,3.96
2019-05-29T06:49:00.188Z,4.11
2019-05-29T06:49:53.815Z,4.12
2019-05-29T06:50:57.156Z,4.22
2019-05-29T06:51:53.867Z,4.36
2019-05-29T06:52:53.833Z,4.37
2019-05-29T06:53:53.925Z,4.41
2019-05-29T06:54:53.846Z,4.55
2019-05-29T06:55:55.607Z,4.59
2019-05-29T06:56:54.171Z,4.62
2019-05-29T06:57:53.905Z,4.77
2019-05-29T06:58:53.899Z,4.67
2019-05-29T06:59:53.896Z,4.34
2019-05-29T07:00:53.922Z,4.33
2019-05-29T07:01:53.980Z,4.40
2019-05-29T07:02:53.938Z,4.22
2019-05-29T07:04:10.690Z,4.09
2019-05-29T07:04:53.954Z,3.96
2019-05-29T07:05:54.245Z,3.91
2019-05-29T07:06:53.963Z,4.00
2019-05-29T07:07:54.026Z,3.93
2019-05-29T07:08:53.969Z,3.93
2019-05-29T07:09:53.987Z,3.88
2019-05-29T07:10:54.014Z,3.87
2019-05-29T07:11:54.013Z,3.93
2019-05-29T07:12:54.011Z,3.91
2019-05-29T07:13:54.025Z,3.97
2019-05-29T07:14:54.027Z,3.97
2019-05-29T07:15:54.069Z,3.88
2019-05-29T07:16:56.161Z,3.91
2019-05-29T07:17:54.068Z,3.97
2019-05-29T07:19:23.738Z,3.83
2019-05-29T07:20:03.347Z,3.84
2019-05-29T07:20:54.083Z,3.94
2019-05-29T07:21:54.257Z,4.02
2019-05-29T07:22:54.125Z,3.94
2019-05-29T07:23:54.121Z,3.93
2019-05-29T07:24:54.114Z,4.05
2019-05-29T07:25:54.137Z,3.98
2019-05-29T07:26:54.169Z,3.87
2019-05-29T07:27:54.154Z,3.78
2019-05-29T07:29:06.766Z,3.88
2019-05-29T07:29:54.276Z,3.88
2019-05-29T07:31:02.065Z,3.93
2019-05-29T07:31:54.200Z,3.90
2019-05-29T07:32:58.457Z,4.02
2019-05-29T07:33:54.219Z,4.14
2019-05-29T07:35:03.054Z,4.14
2019-05-29T07:35:54.274Z,4.24
2019-05-29T07:36:54.243Z,4.23
2019-05-29T07:37:54.232Z,4.40
2019-05-29T07:39:02.746Z,4.37
2019-05-29T07:39:54.268Z,4.45
2019-05-29T07:40:54.286Z,4.58
2019-05-29T07:41:54.266Z,4.70
2019-05-29T07:42:56.768Z,4.77
2019-05-29T07:43:54.373Z,4.92
2019-05-29T07:44:54.319Z,4.99
2019-05-29T07:45:54.325Z,4.92
2019-05-29T07:46:54.323Z,4.92
2019-05-29T07:47:54.375Z,5.03
2019-05-29T07:48:54.335Z,5.07
2019-05-29T07:49:54.353Z,5.12
2019-05-29T07:51:06.257Z,5.09
2019-05-29T07:51:54.420Z,4.96
2019-05-29T07:52:54.505Z,5.02
2019-05-29T07:53:54.382Z,4.94
2019-05-29T07:54:54.401Z,5.12
2019-05-29T07:55:54.564Z,4.97
2019-05-29T07:56:54.409Z,5.09
2019-05-29T07:57:54.412Z,4.99
2019-05-29T07:59:02.229Z,5.00
2019-05-29T07:59:54.427Z,5.09
2019-05-29T08:01:11.715Z,5.17
2019-05-29T08:01:54.465Z,4.94
2019-05-29T08:02:54.469Z,4.72
2019-05-29T08:03:54.489Z,4.36
2019-05-29T08:04:54.483Z,4.37
2019-05-29T08:05:54.506Z,4.54
2019-05-29T08:06:54.742Z,4.42
2019-05-29T08:07:54.491Z,4.42
2019-05-29T08:08:54.512Z,4.41
2019-05-29T08:09:54.590Z,4.30
2019-05-29T08:10:54.536Z,4.36
2019-05-29T08:11:54.546Z,4.51
2019-05-29T08:12:55.950Z,4.48
2019-05-29T08:13:54.552Z,4.50
2019-05-29T08:14:54.588Z,4.30
2019-05-29T08:16:02.566Z,4.27
2019-05-29T08:16:54.615Z,4.30
2019-05-29T08:17:54.617Z,4.52
2019-05-29T08:18:54.773Z,4.72
2019-05-29T08:20:06.145Z,4.86
2019-05-29T08:20:54.648Z,4.94
2019-05-29T08:21:54.627Z,5.06
2019-05-29T08:22:54.647Z,5.20
2019-05-29T08:23:54.683Z,5.35
2019-05-29T08:24:54.674Z,5.43
2019-05-29T08:25:54.728Z,5.51
2019-05-29T08:26:54.672Z,5.46
2019-05-29T08:27:54.701Z,5.35
2019-05-29T08:28:54.730Z,5.22
2019-05-29T08:29:54.703Z,5.17
2019-05-29T08:30:56.529Z,5.33
2019-05-29T08:31:54.722Z,5.43
2019-05-29T08:32:54.726Z,5.20
2019-05-29T08:33:54.860Z,5.22
2019-05-29T08:34:55.017Z,5.10
2019-05-29T08:35:59.825Z,4.92
2019-05-29T08:37:05.924Z,4.78
2019-05-29T08:37:54.788Z,4.88
2019-05-29T08:38:54.797Z,4.82
2019-05-29T08:39:54.794Z,4.78
2019-05-29T08:40:54.802Z,5.00
2019-05-29T08:42:17.403Z,5.04
2019-05-29T08:42:54.843Z,5.06
2019-05-29T08:43:54.834Z,5.09
2019-05-29T08:44:54.897Z,5.12
2019-05-29T08:45:54.886Z,5.15
2019-05-29T08:47:08.464Z,5.04
2019-05-29T08:47:54.896Z,4.92
2019-05-29T08:48:54.893Z,4.97
2019-05-29T08:49:54.995Z,4.80
2019-05-29T08:50:54.993Z,4.73
2019-05-29T08:52:10.597Z,4.82
2019-05-29T08:52:54.923Z,4.72
2019-05-29T08:53:54.969Z,4.84
2019-05-29T08:54:54.935Z,4.67
2019-05-29T08:55:55.132Z,4.89
2019-05-29T08:56:54.986Z,4.97
2019-05-29T08:57:55.070Z,5.03
2019-05-29T08:58:55.005Z,5.03
2019-05-29T08:59:54.988Z,5.03
2019-05-29T09:00:55.407Z,5.20
2019-05-29T09:01:55.543Z,5.04
2019-05-29T09:02:55.385Z,5.15
2019-05-29T09:03:55.033Z,5.20
2019-05-29T09:04:55.067Z,5.15
2019-05-29T09:06:07.946Z,5.09
2019-05-29T09:06:55.051Z,5.00
2019-05-29T09:07:55.113Z,5.04
2019-05-29T09:08:55.255Z,5.17
2019-05-29T09:09:55.080Z,5.02
2019-05-29T09:10:55.102Z,5.12
2019-05-29T09:11:55.093Z,5.17
2019-05-29T09:13:04.471Z,5.21
2019-05-29T09:13:55.128Z,5.39
2019-05-29T09:14:55.123Z,5.58
2019-05-29T09:15:55.210Z,5.75
2019-05-29T09:16:55.156Z,6.06
2019-05-29T09:17:55.144Z,6.31
2019-05-29T09:18:55.194Z,6.58
2019-05-29T09:19:55.168Z,6.67
2019-05-29T09:21:03.307Z,6.69
2019-05-29T09:21:55.212Z,6.62
2019-05-29T09:22:55.215Z,6.66
2019-05-29T09:23:58.486Z,6.74
2019-05-29T09:24:55.220Z,6.87
2019-05-29T09:25:55.262Z,6.61
2019-05-29T09:26:55.257Z,6.31
2019-05-29T09:27:55.248Z,6.27
2019-05-29T09:28:55.330Z,6.06
2019-05-29T09:29:55.360Z,6.03
2019-05-29T09:30:55.284Z,6.11
2019-05-29T09:31:55.294Z,5.90
2019-05-29T09:32:55.306Z,5.97
2019-05-29T09:33:55.308Z,6.08
2019-05-29T09:34:55.416Z,6.15
2019-05-29T09:35:55.474Z,6.06
2019-05-29T09:36:56.033Z,6.15
2019-05-29T09:37:55.343Z,6.04
2019-05-29T09:38:55.388Z,6.09
2019-05-29T09:39:55.398Z,5.89
2019-05-29T09:40:55.462Z,5.79
2019-05-29T09:41:55.450Z,5.53
2019-05-29T09:42:55.401Z,5.35
2019-05-29T09:43:59.735Z,5.54
2019-05-29T09:44:55.445Z,5.58
2019-05-29T09:45:55.424Z,5.81
2019-05-29T09:46:55.450Z,5.81
2019-05-29T09:47:55.448Z,5.82
2019-05-29T09:48:55.552Z,5.85
2019-05-29T09:49:55.466Z,5.86
2019-05-29T09:50:55.502Z,5.97
2019-05-29T09:51:56.157Z,6.06
2019-05-29T09:52:57.182Z,5.97
2019-05-29T09:53:57.550Z,5.94
2019-05-29T09:54:56.152Z,6.18
2019-05-29T09:55:57.269Z,6.18
2019-05-29T09:56:56.676Z,6.37
2019-05-29T09:57:56.850Z,6.43
2019-05-29T09:58:56.614Z,6.54
2019-05-29T09:59:56.405Z,6.67
2019-05-29T10:01:15.939Z,6.92
2019-05-29T10:01:56.962Z,6.92
2019-05-29T10:02:55.711Z,6.97
2019-05-29T10:03:57.523Z,7.17
2019-05-29T10:04:56.510Z,7.28
2019-05-29T10:05:55.917Z,7.45
2019-05-29T10:06:56.090Z,7.45
2019-05-29T10:07:56.774Z,7.58
2019-05-29T10:08:56.265Z,7.82
2019-05-29T10:09:56.899Z,7.75
2019-05-29T10:11:01.461Z,7.77
2019-05-29T10:11:59.673Z,7.87
2019-05-29T10:12:56.473Z,7.98
2019-05-29T10:13:56.750Z,7.89
2019-05-29T10:14:57.032Z,7.58
2019-05-29T10:15:57.232Z,7.28
2019-05-29T10:16:58.218Z,7.20
2019-05-29T10:17:56.884Z,7.21
2019-05-29T10:18:57.266Z,7.13
2019-05-29T10:19:57.188Z,7.39
2019-05-29T10:20:56.524Z,7.25
2019-05-29T10:21:56.841Z,7.35
2019-05-29T10:22:57.007Z,7.48
2019-05-29T10:23:56.649Z,7.60
2019-05-29T10:24:56.774Z,7.58
2019-05-29T10:25:58.005Z,7.60
2019-05-29T10:26:57.184Z,7.75
2019-05-29T10:27:55.908Z,8.19
2019-05-29T10:29:07.371Z,8.52
2019-05-29T10:29:55.884Z,8.63
2019-05-29T10:30:55.914Z,8.74
2019-05-29T10:31:55.915Z,8.76
2019-05-29T10:32:55.916Z,8.84
2019-05-29T10:33:55.949Z,8.95
2019-05-29T10:34:55.999Z,8.76
2019-05-29T10:35:55.948Z,8.34
2019-05-29T10:36:56.010Z,7.43
2019-05-29T10:37:55.968Z,7.30
2019-05-29T10:38:56.004Z,7.15
2019-05-29T10:39:56.100Z,7.10
2019-05-29T10:41:05.827Z,6.58
2019-05-29T10:41:56.435Z,6.49
2019-05-29T10:42:56.065Z,6.69
2019-05-29T10:43:56.053Z,6.48
2019-05-29T10:44:56.111Z,6.55
2019-05-29T10:45:56.067Z,6.55
2019-05-29T10:46:56.657Z,6.81
2019-05-29T10:47:56.087Z,6.62
2019-05-29T10:48:56.742Z,6.49
2019-05-29T10:49:56.146Z,6.74
2019-05-29T10:50:56.187Z,6.99
2019-05-29T10:52:12.839Z,7.25
2019-05-29T10:52:56.150Z,7.60
2019-05-29T10:53:58.804Z,8.10
2019-05-29T10:54:56.171Z,8.52
2019-05-29T10:55:56.176Z,8.61
2019-05-29T10:56:56.194Z,9.13
2019-05-29T10:57:56.208Z,9.21
2019-05-29T10:58:59.804Z,9.36
2019-05-29T10:59:56.287Z,9.50
2019-05-29T11:00:56.251Z,9.64
2019-05-29T11:01:56.235Z,9.87
2019-05-29T11:02:57.718Z,9.96
2019-05-29T11:03:56.310Z,10.07
2019-05-29T11:04:59.124Z,9.89
2019-05-29T11:05:56.580Z,9.66
2019-05-29T11:06:56.872Z,9.72
2019-05-29T11:07:56.334Z,9.61
2019-05-29T11:08:56.415Z,9.64
2019-05-29T11:09:56.332Z,9.26
2019-05-29T11:10:56.417Z,8.83
2019-05-29T11:11:57.698Z,8.94
2019-05-29T11:12:56.786Z,9.02
2019-05-29T11:13:57.171Z,8.76
2019-05-29T11:14:56.982Z,8.63
2019-05-29T11:15:56.923Z,8.73
2019-05-29T11:16:57.587Z,8.65
2019-05-29T11:17:57.392Z,8.47
2019-05-29T11:18:57.573Z,9.04
2019-05-29T11:19:58.092Z,8.99
2019-05-29T11:20:57.578Z,9.14
2019-05-29T11:22:04.549Z,9.02
2019-05-29T11:22:57.786Z,8.70
2019-05-29T11:23:56.495Z,8.68
2019-05-29T11:24:56.734Z,8.40
2019-05-29T11:25:56.557Z,8.30
2019-05-29T11:26:56.714Z,8.43
2019-05-29T11:27:56.818Z,8.48
2019-05-29T11:28:56.742Z,8.84
2019-05-29T11:29:57.117Z,9.35
2019-05-29T11:30:57.236Z,9.58
2019-05-29T11:31:56.991Z,9.78
2019-05-29T11:32:57.598Z,9.96
2019-05-29T11:33:57.193Z,9.65
2019-05-29T11:34:57.534Z,9.66
2019-05-29T11:36:07.976Z,9.47
2019-05-29T11:36:56.669Z,9.33
2019-05-29T11:37:56.731Z,9.42
2019-05-29T11:38:56.937Z,9.32
2019-05-29T11:39:56.868Z,9.43
2019-05-29T11:41:19.885Z,9.43
2019-05-29T11:41:56.912Z,9.43
2019-05-29T11:42:56.973Z,8.95
2019-05-29T11:43:56.954Z,9.38
2019-05-29T11:44:56.975Z,8.95
2019-05-29T11:45:57.369Z,8.99
2019-05-29T11:46:58.069Z,8.71
2019-05-29T11:47:58.433Z,8.02
2019-05-29T11:48:57.389Z,7.79
2019-05-29T11:50:07.523Z,8.30
2019-05-29T11:50:56.823Z,8.65
2019-05-29T11:52:18.706Z,8.99
2019-05-29T11:52:56.865Z,9.36
2019-05-29T11:53:57.536Z,9.96
2019-05-29T11:54:59.959Z,9.89
2019-05-29T11:55:57.730Z,10.01
2019-05-29T11:56:57.409Z,9.84
2019-05-29T11:57:57.930Z,9.69
2019-05-29T11:58:57.133Z,9.65
2019-05-29T12:00:00.203Z,9.61
2019-05-29T12:00:57.243Z,9.65
2019-05-29T12:01:58.561Z,9.99
2019-05-29T12:02:57.751Z,10.02
2019-05-29T12:04:18.533Z,9.68
2019-05-29T12:04:58.101Z,8.99
2019-05-29T12:05:57.602Z,8.58
2019-05-29T12:06:57.580Z,8.34
2019-05-29T12:07:57.567Z,8.20
2019-05-29T12:08:57.952Z,7.75
2019-05-29T12:09:57.508Z,8.02
2019-05-29T12:10:57.436Z,8.43
2019-05-29T12:11:57.996Z,9.11
2019-05-29T12:12:57.565Z,9.74
2019-05-29T12:13:58.030Z,10.41
2019-05-29T12:15:04.911Z,10.23
2019-05-29T12:15:57.739Z,10.70
2019-05-29T12:16:58.243Z,10.32
2019-05-29T12:18:19.070Z,10.05
2019-05-29T12:18:57.829Z,9.48
2019-05-29T12:19:59.815Z,9.66
2019-05-29T12:20:58.540Z,10.41
2019-05-29T12:21:58.346Z,10.15
2019-05-29T12:23:18.921Z,10.20
2019-05-29T12:23:58.177Z,10.47
2019-05-29T12:24:58.510Z,10.79
2019-05-29T12:26:17.684Z,10.05
2019-05-29T12:26:58.450Z,10.34
2019-05-29T12:27:57.433Z,10.30
2019-05-29T12:29:04.873Z,10.15
2019-05-29T12:29:57.346Z,10.32
2019-05-29T12:30:57.319Z,10.56
2019-05-29T12:31:57.324Z,10.38
2019-05-29T12:32:57.327Z,10.32
2019-05-29T12:34:00.231Z,10.73
2019-05-29T12:34:58.571Z,10.89
2019-05-29T12:35:57.413Z,11.36
2019-05-29T12:36:57.443Z,11.46
2019-05-29T12:37:57.423Z,11.07
2019-05-29T12:38:57.913Z,11.00
2019-05-29T12:39:57.559Z,11.09
2019-05-29T12:40:57.762Z,10.42
2019-05-29T12:41:57.644Z,11.06
2019-05-29T12:42:57.598Z,11.10
2019-05-29T12:43:57.598Z,11.14
2019-05-29T12:44:57.655Z,10.73
2019-05-29T12:45:57.820Z,10.96
2019-05-29T12:46:57.741Z,10.51
2019-05-29T12:47:58.170Z,10.64
2019-05-29T12:48:57.636Z,11.39
2019-05-29T12:49:57.687Z,12.05
2019-05-29T12:50:58.296Z,12.28
2019-05-29T12:51:57.760Z,12.38
2019-05-29T12:52:57.776Z,12.14
2019-05-29T12:53:58.012Z,12.42
2019-05-29T12:54:58.016Z,11.90
2019-05-29T12:55:58.374Z,11.17
2019-05-29T12:56:57.899Z,10.63
2019-05-29T12:57:58.027Z,10.07
2019-05-29T12:58:58.297Z,10.17
2019-05-29T12:59:58.028Z,9.87
2019-05-29T13:00:58.572Z,9.57
2019-05-29T13:01:58.403Z,9.97
2019-05-29T13:02:58.727Z,9.74
2019-05-29T13:03:58.641Z,9.61
2019-05-29T13:05:13.041Z,9.38
2019-05-29T13:05:58.211Z,9.57
2019-05-29T13:06:58.609Z,9.87
2019-05-29T13:07:58.840Z,10.05
2019-05-29T13:08:58.477Z,10.09
2019-05-29T13:09:58.892Z,9.84
2019-05-29T13:10:58.256Z,9.58
2019-05-29T13:11:58.491Z,9.58
2019-05-29T13:13:02.378Z,9.33
2019-05-29T13:13:58.452Z,9.50
2019-05-29T13:14:58.577Z,9.61
2019-05-29T13:15:58.776Z,9.81
2019-05-29T13:16:58.814Z,10.15
2019-05-29T13:18:02.430Z,10.64